createdAt,value
2022-08-03T00:00:24.338Z,29.37
2022-08-03T00:02:51.089Z,29.34
2022-08-03T00:05:17.831Z,29.35
2022-08-03T00:07:44.457Z,29.31
2022-08-03T00:10:11.041Z,29.28
2022-08-03T00:12:37.683Z,29.28
2022-08-03T00:15:04.686Z,29.23
2022-08-03T00:17:52.795Z,29.21
2022-08-03T00:20:23.484Z,29.19
2022-08-03T00:22:50.219Z,29.18
2022-08-03T00:25:16.944Z,29.15
2022-08-03T00:27:43.641Z,29.14
2022-08-03T00:30:10.512Z,29.15
2022-08-03T00:32:37.143Z,29.12
2022-08-03T00:35:09.273Z,29.16
2022-08-03T00:37:41.313Z,29.21
2022-08-03T00:40:12.686Z,29.17
2022-08-03T00:42:53.712Z,29.11
2022-08-03T00:45:28.616Z,29.12
2022-08-03T00:47:55.496Z,29.15
2022-08-03T00:50:23.147Z,29.09
2022-08-03T00:52:50.565Z,29.12
2022-08-03T00:55:17.182Z,29.05
2022-08-03T00:57:43.858Z,29.06
2022-08-03T01:00:18.667Z,29.04
2022-08-03T01:02:45.254Z,29.02
2022-08-03T01:05:11.907Z,28.98
2022-08-03T01:07:42.198Z,28.97
2022-08-03T01:10:44.023Z,29.01
2022-08-03T01:14:00.910Z,28.91
2022-08-03T01:16:36.873Z,28.82
2022-08-03T01:19:28.167Z,28.81
2022-08-03T01:22:31.805Z,28.88
2022-08-03T01:25:07.563Z,28.81
2022-08-03T01:28:07.330Z,28.75
2022-08-03T01:30:34.021Z,28.74
2022-08-03T01:33:03.655Z,28.72
2022-08-03T01:35:38.615Z,28.69
2022-08-03T01:38:35.396Z,28.67
2022-08-03T01:41:09.238Z,28.69
2022-08-03T01:44:28.606Z,28.60
2022-08-03T01:46:22.468Z,28.60
2022-08-03T01:48:49.050Z,28.61
2022-08-03T01:51:16.935Z,28.62
2022-08-03T01:53:43.563Z,28.57
2022-08-03T01:56:10.327Z,28.58
2022-08-03T01:58:37.462Z,28.60
2022-08-03T02:01:05.047Z,28.59
2022-08-03T02:03:32.428Z,28.48
2022-08-03T02:06:56.789Z,28.44
2022-08-03T02:08:45.674Z,28.38
2022-08-03T02:11:12.299Z,28.37
2022-08-03T02:13:38.900Z,28.33
2022-08-03T02:16:05.741Z,28.30
2022-08-03T02:18:32.965Z,28.32
2022-08-03T02:21:01.273Z,28.33
2022-08-03T02:23:37.849Z,28.23
2022-08-03T02:26:05.346Z,28.25
2022-08-03T02:28:33.283Z,28.21
2022-08-03T02:31:03.227Z,28.23
2022-08-03T02:33:34.640Z,28.23
2022-08-03T02:36:01.316Z,28.18
2022-08-03T02:38:36.049Z,28.17
2022-08-03T02:41:08.911Z,28.14
2022-08-03T02:43:56.799Z,28.07
2022-08-03T02:46:24.704Z,28.06
2022-08-03T02:48:51.625Z,28.02
2022-08-03T02:51:19.330Z,28.03
2022-08-03T02:53:46.115Z,27.99
2022-08-03T02:56:13.304Z,27.97
2022-08-03T02:58:40.509Z,27.91
2022-08-03T03:01:07.158Z,27.93
2022-08-03T03:03:35.968Z,27.90
2022-08-03T03:06:11.322Z,27.84
2022-08-03T03:08:37.819Z,27.78
2022-08-03T03:11:05.691Z,27.78
2022-08-03T03:13:32.131Z,27.87
2022-08-03T03:16:01.562Z,27.81
2022-08-03T03:18:28.814Z,27.79
2022-08-03T03:20:55.393Z,27.72
2022-08-03T03:23:22.158Z,27.68
2022-08-03T03:25:48.783Z,27.73
2022-08-03T03:28:15.190Z,27.66
2022-08-03T03:30:41.939Z,27.68
2022-08-03T03:33:08.555Z,27.70
2022-08-03T03:35:38.835Z,27.66
2022-08-03T03:38:06.496Z,27.61
2022-08-03T03:40:33.104Z,27.58
2022-08-03T03:42:59.516Z,27.60
2022-08-03T03:45:26.169Z,27.60
2022-08-03T03:47:52.789Z,27.55
2022-08-03T03:50:19.525Z,27.41
2022-08-03T03:52:46.149Z,27.49
2022-08-03T03:55:16.430Z,27.52
2022-08-03T03:57:43.024Z,27.54
2022-08-03T04:00:09.794Z,27.58
2022-08-03T04:02:36.408Z,27.49
2022-08-03T04:05:21.471Z,27.56
2022-08-03T04:08:17.596Z,27.64
2022-08-03T04:10:59.503Z,27.62
2022-08-03T04:13:34.612Z,27.62
2022-08-03T04:16:01.275Z,27.58
2022-08-03T04:18:28.336Z,27.63
2022-08-03T04:20:56.369Z,27.63
2022-08-03T04:23:22.988Z,27.65
2022-08-03T04:25:49.557Z,27.61
2022-08-03T04:28:29.713Z,27.70
2022-08-03T04:30:56.976Z,27.65
2022-08-03T04:33:25.003Z,27.75
2022-08-03T04:36:01.832Z,27.83
2022-08-03T04:38:30.586Z,27.78
2022-08-03T04:40:57.219Z,27.86
2022-08-03T04:43:23.826Z,27.82
2022-08-03T04:45:50.467Z,27.91
2022-08-03T04:48:17.407Z,27.91
2022-08-03T04:50:45.530Z,27.93
2022-08-03T04:53:12.144Z,27.97
2022-08-03T04:55:39.519Z,28.03
2022-08-03T04:58:06.500Z,28.15
2022-08-03T05:00:33.137Z,28.18
2022-08-03T05:02:59.747Z,28.21
2022-08-03T05:05:26.536Z,28.25
2022-08-03T05:08:13.104Z,28.35
2022-08-03T05:10:39.535Z,28.43
2022-08-03T05:13:06.129Z,28.41
2022-08-03T05:15:32.741Z,28.50
2022-08-03T05:17:59.322Z,28.49
2022-08-03T05:20:26.082Z,28.65
2022-08-03T05:22:52.696Z,28.77
2022-08-03T05:25:22.258Z,28.85
2022-08-03T05:27:51.131Z,28.97
2022-08-03T05:30:27.306Z,29.12
2022-08-03T05:33:01.068Z,29.21
2022-08-03T05:35:55.908Z,29.33
2022-08-03T05:38:15.526Z,29.24
2022-08-03T05:40:57.357Z,29.51
2022-08-03T05:43:41.311Z,29.58
2022-08-03T05:46:12.425Z,29.88
2022-08-03T05:48:39.863Z,30.09
2022-08-03T05:51:11.404Z,30.23
2022-08-03T05:53:38.814Z,30.19
2022-08-03T05:56:14.189Z,30.55
2022-08-03T05:58:46.208Z,31.11
2022-08-03T06:01:12.979Z,31.49
2022-08-03T06:03:39.658Z,31.51
2022-08-03T06:06:06.293Z,31.79
2022-08-03T06:08:33.044Z,32.20
2022-08-03T06:10:59.718Z,32.60
2022-08-03T06:13:26.284Z,33.06
2022-08-03T06:15:52.855Z,33.31
2022-08-03T06:18:19.512Z,33.30
2022-08-03T06:20:47.230Z,33.02
2022-08-03T06:23:17.884Z,33.15
2022-08-03T06:25:45.197Z,33.52
2022-08-03T06:28:35.148Z,33.61
2022-08-03T06:31:01.077Z,33.79
2022-08-03T06:34:31.457Z,33.71
2022-08-03T06:36:14.475Z,33.76
2022-08-03T06:38:41.071Z,34.03
2022-08-03T06:41:07.661Z,34.30
2022-08-03T06:43:37.978Z,33.80
2022-08-03T06:46:24.187Z,33.67
2022-08-03T06:48:51.168Z,34.23
2022-08-03T06:51:17.848Z,34.39
2022-08-03T06:53:44.506Z,34.43
2022-08-03T06:56:11.184Z,34.56
2022-08-03T06:58:37.803Z,34.65
2022-08-03T07:01:04.502Z,34.83
2022-08-03T07:03:31.215Z,35.08
2022-08-03T07:05:57.916Z,35.48
2022-08-03T07:08:34.306Z,35.84
2022-08-03T07:11:01.147Z,35.68
2022-08-03T07:13:27.761Z,36.45
2022-08-03T07:15:56.058Z,35.93
2022-08-03T07:18:28.863Z,36.07
2022-08-03T07:20:56.447Z,37.45
2022-08-03T07:23:23.060Z,37.70
2022-08-03T07:25:50.917Z,38.22
2022-08-03T07:28:17.648Z,38.77
2022-08-03T07:30:44.331Z,40.34
2022-08-03T07:33:11.368Z,40.83
2022-08-03T07:35:37.998Z,41.15
2022-08-03T07:38:04.939Z,40.90
2022-08-03T07:40:32.423Z,40.57
2022-08-03T07:42:59.643Z,40.50
2022-08-03T07:45:26.835Z,40.14
2022-08-03T07:47:54.240Z,41.45
2022-08-03T07:50:21.500Z,42.22
2022-08-03T07:52:48.293Z,42.11
2022-08-03T07:55:18.904Z,42.34
2022-08-03T07:57:45.555Z,42.51
2022-08-03T08:00:17.293Z,42.31
2022-08-03T08:02:43.957Z,42.74
2022-08-03T08:05:11.043Z,42.93
2022-08-03T08:07:40.435Z,42.92
2022-08-03T08:10:07.896Z,43.68
2022-08-03T08:12:34.539Z,44.11
2022-08-03T08:15:01.288Z,43.42
2022-08-03T08:17:28.039Z,43.41
2022-08-03T08:19:54.622Z,44.07
2022-08-03T08:22:29.990Z,44.16
2022-08-03T08:24:57.961Z,43.91
2022-08-03T08:27:24.538Z,44.30
2022-08-03T08:29:55.140Z,44.53
2022-08-03T08:32:23.144Z,44.52
2022-08-03T08:34:49.761Z,44.45
2022-08-03T08:37:16.495Z,44.37
2022-08-03T08:39:43.179Z,45.27
2022-08-03T08:42:10.277Z,45.46
2022-08-03T08:44:37.031Z,45.00
2022-08-03T08:47:04.228Z,45.00
2022-08-03T08:49:30.933Z,44.23
2022-08-03T08:52:00.731Z,44.61
2022-08-03T08:54:28.107Z,44.75
2022-08-03T08:56:54.994Z,44.07
2022-08-03T08:59:21.626Z,44.78
2022-08-03T09:01:48.638Z,45.37
2022-08-03T09:04:15.328Z,45.69
2022-08-03T09:06:53.692Z,45.56
2022-08-03T09:10:05.353Z,45.52
2022-08-03T09:12:39.086Z,44.01
2022-08-03T09:15:38.150Z,43.91
2022-08-03T09:18:04.883Z,44.68
2022-08-03T09:20:33.365Z,44.00
2022-08-03T09:23:19.053Z,43.67
2022-08-03T09:25:50.972Z,43.19
2022-08-03T09:28:56.577Z,43.54
2022-08-03T09:31:04.494Z,43.37
2022-08-03T09:33:36.249Z,44.03
2022-08-03T09:36:02.949Z,44.38
2022-08-03T09:38:29.539Z,44.13
2022-08-03T09:41:00.079Z,44.61
2022-08-03T09:43:28.006Z,44.75
2022-08-03T09:46:03.143Z,44.72
2022-08-03T09:48:30.667Z,44.54
2022-08-03T09:51:33.000Z,43.87
2022-08-03T09:53:58.609Z,44.30
2022-08-03T09:56:39.060Z,44.11
2022-08-03T09:59:05.646Z,44.71
2022-08-03T10:01:36.029Z,45.21
2022-08-03T10:04:04.890Z,45.10
2022-08-03T10:06:31.950Z,45.02
2022-08-03T10:09:24.858Z,44.82
2022-08-03T10:11:51.437Z,44.29
2022-08-03T10:14:21.042Z,44.42
2022-08-03T10:16:47.767Z,43.83
2022-08-03T10:19:15.596Z,42.89
2022-08-03T10:21:53.221Z,43.43
2022-08-03T10:24:25.067Z,43.24
2022-08-03T10:26:51.686Z,43.13
2022-08-03T10:29:21.369Z,43.83
2022-08-03T10:31:58.268Z,43.39
2022-08-03T10:34:26.892Z,43.22
2022-08-03T10:36:55.734Z,41.49
2022-08-03T10:39:23.021Z,41.57
2022-08-03T10:41:49.906Z,41.18
2022-08-03T10:44:20.736Z,40.72
2022-08-03T10:46:48.415Z,40.59
2022-08-03T10:49:16.080Z,41.08
2022-08-03T10:51:46.649Z,41.31
2022-08-03T10:54:35.342Z,41.65
2022-08-03T10:57:20.576Z,41.88
2022-08-03T10:59:47.048Z,41.61
2022-08-03T11:02:14.594Z,41.75
2022-08-03T11:04:41.707Z,41.19
2022-08-03T11:07:17.721Z,41.56
2022-08-03T11:09:47.610Z,41.28
2022-08-03T11:12:33.471Z,42.05
2022-08-03T11:15:02.026Z,40.88
2022-08-03T11:17:28.700Z,40.18
2022-08-03T11:19:57.297Z,39.62
2022-08-03T11:22:25.117Z,39.12
2022-08-03T11:24:54.115Z,39.15
2022-08-03T11:27:21.467Z,38.93
2022-08-03T11:30:19.605Z,38.75
2022-08-03T11:32:51.644Z,38.38
2022-08-03T11:35:29.147Z,38.16
2022-08-03T11:38:03.405Z,37.74
2022-08-03T11:40:47.940Z,37.89
2022-08-03T11:43:31.427Z,38.37
2022-08-03T11:45:59.119Z,39.19
2022-08-03T11:48:40.923Z,39.21
2022-08-03T11:51:08.204Z,39.48
2022-08-03T11:53:41.716Z,39.44
2022-08-03T11:56:13.002Z,40.05
2022-08-03T11:59:17.208Z,39.60
2022-08-03T12:01:33.379Z,39.94
2022-08-03T12:04:06.387Z,40.53
2022-08-03T12:06:54.857Z,40.36
2022-08-03T12:09:21.790Z,40.20
2022-08-03T12:11:59.941Z,40.71
2022-08-03T12:14:49.546Z,40.66
2022-08-03T12:17:14.986Z,40.42
2022-08-03T12:19:42.809Z,39.69
2022-08-03T12:22:09.401Z,40.00
2022-08-03T12:24:47.238Z,39.10
2022-08-03T12:27:25.313Z,39.77
2022-08-03T12:29:58.582Z,39.70
2022-08-03T12:32:26.153Z,39.77
2022-08-03T12:34:52.735Z,39.62
2022-08-03T12:37:29.352Z,39.68
2022-08-03T12:40:02.698Z,39.61
2022-08-03T12:42:32.668Z,39.15
2022-08-03T12:44:59.253Z,39.32
2022-08-03T12:47:25.920Z,38.89
2022-08-03T12:49:53.844Z,38.61
2022-08-03T12:52:22.051Z,38.56
2022-08-03T12:54:59.330Z,38.59
2022-08-03T12:57:26.042Z,38.32
2022-08-03T12:59:55.879Z,38.51
2022-08-03T13:02:24.668Z,38.66
2022-08-03T13:04:52.554Z,38.53
2022-08-03T13:07:19.919Z,38.40
2022-08-03T13:09:47.311Z,38.66
2022-08-03T13:12:21.407Z,38.70
2022-08-03T13:14:58.645Z,38.85
2022-08-03T13:17:25.512Z,39.09
2022-08-03T13:19:52.534Z,39.16
2022-08-03T13:22:19.900Z,39.08
2022-08-03T13:24:47.778Z,39.16
2022-08-03T13:28:01.464Z,39.05
2022-08-03T13:30:01.104Z,39.08
2022-08-03T13:32:27.708Z,39.10
2022-08-03T13:34:54.337Z,39.15
2022-08-03T13:37:21.457Z,39.11
2022-08-03T13:39:59.662Z,38.83
2022-08-03T13:42:31.710Z,38.90
2022-08-03T13:44:58.897Z,39.04
2022-08-03T13:47:25.747Z,38.96
2022-08-03T13:50:00.094Z,39.09
2022-08-03T13:52:28.944Z,38.67
2022-08-03T13:54:55.384Z,38.81
2022-08-03T13:58:02.919Z,38.72
2022-08-03T14:00:09.167Z,38.71
2022-08-03T14:02:35.861Z,38.47
2022-08-03T14:05:02.519Z,38.05
2022-08-03T14:07:29.091Z,38.11
2022-08-03T14:09:55.689Z,38.20
2022-08-03T14:12:22.269Z,38.30
2022-08-03T14:14:48.870Z,38.37
2022-08-03T14:17:16.380Z,38.23
2022-08-03T14:19:52.769Z,38.22
2022-08-03T14:22:20.352Z,37.79
2022-08-03T14:24:46.966Z,37.65
2022-08-03T14:27:13.553Z,38.01
2022-08-03T14:29:40.203Z,38.13
2022-08-03T14:32:10.174Z,38.31
2022-08-03T14:34:38.929Z,38.33
2022-08-03T14:37:05.626Z,38.37
2022-08-03T14:42:20.385Z,38.46
2022-08-03T14:44:47.336Z,38.42
2022-08-03T14:47:14.266Z,38.54
2022-08-03T14:50:33.699Z,38.50
2022-08-03T14:52:27.575Z,38.43
2022-08-03T14:54:54.158Z,38.53
2022-08-03T14:57:21.016Z,38.55
2022-08-03T14:59:55.903Z,38.44
2022-08-03T15:02:27.898Z,38.42
2022-08-03T15:04:54.597Z,38.54
2022-08-03T15:07:21.404Z,38.21
2022-08-03T15:09:48.195Z,38.38
2022-08-03T15:12:14.942Z,38.49
2022-08-03T15:14:41.561Z,38.36
2022-08-03T15:17:08.177Z,38.37
2022-08-03T15:20:02.294Z,38.43
2022-08-03T15:22:25.015Z,38.46
2022-08-03T15:25:02.530Z,38.35
2022-08-03T15:27:29.150Z,38.52
2022-08-03T15:30:06.902Z,38.49
2022-08-03T15:32:36.852Z,38.47
2022-08-03T15:35:03.626Z,38.50
2022-08-03T15:37:30.264Z,38.44
2022-08-03T15:40:00.017Z,38.57
2022-08-03T15:42:30.340Z,38.61
2022-08-03T15:44:57.107Z,38.53
2022-08-03T15:47:23.914Z,38.38
2022-08-03T15:49:50.515Z,38.14
2022-08-03T15:52:17.140Z,38.32
2022-08-03T15:54:43.739Z,38.36
2022-08-03T15:57:10.482Z,38.35
2022-08-03T15:59:37.065Z,38.13
2022-08-03T16:02:03.763Z,38.14
2022-08-03T16:04:30.408Z,38.12
2022-08-03T16:06:57.018Z,38.15
2022-08-03T16:09:43.035Z,38.19
2022-08-03T16:12:11.811Z,38.19
2022-08-03T16:14:51.724Z,38.12
2022-08-03T16:17:19.060Z,38.11
2022-08-03T16:19:45.958Z,38.11
2022-08-03T16:22:13.421Z,38.02
2022-08-03T16:24:41.219Z,38.07
2022-08-03T16:27:17.338Z,38.06
2022-08-03T16:29:54.422Z,37.98
2022-08-03T16:32:21.049Z,38.06
2022-08-03T16:34:48.229Z,38.05
2022-08-03T16:37:37.010Z,37.92
2022-08-03T16:40:01.566Z,37.93
2022-08-03T16:42:28.140Z,37.72
2022-08-03T16:44:54.805Z,37.73
2022-08-03T16:47:22.449Z,37.73
2022-08-03T16:49:55.996Z,37.65
2022-08-03T16:52:23.575Z,37.69
2022-08-03T16:54:50.760Z,37.62
2022-08-03T16:57:56.367Z,37.23
2022-08-03T17:00:08.809Z,37.07
2022-08-03T17:02:36.039Z,37.21
2022-08-03T17:05:03.275Z,37.27
2022-08-03T17:07:30.497Z,37.25
2022-08-03T17:09:57.133Z,37.15
2022-08-03T17:12:26.017Z,37.04
2022-08-03T17:14:54.170Z,36.97
2022-08-03T17:17:30.185Z,36.94
2022-08-03T17:20:10.141Z,36.89
2022-08-03T17:22:38.764Z,36.85
2022-08-03T17:25:07.833Z,36.68
2022-08-03T17:28:51.519Z,36.61
2022-08-03T17:30:21.310Z,36.56
2022-08-03T17:32:56.774Z,36.48
2022-08-03T17:35:24.616Z,36.46
2022-08-03T17:38:03.500Z,36.39
2022-08-03T17:40:31.565Z,36.31
2022-08-03T17:43:00.027Z,36.25
2022-08-03T17:45:52.562Z,36.17
2022-08-03T17:48:18.698Z,36.14
2022-08-03T17:50:57.785Z,36.03
2022-08-03T17:53:31.577Z,35.99
2022-08-03T17:56:40.769Z,35.93
2022-08-03T17:59:50.891Z,35.88
2022-08-03T18:02:48.453Z,35.80
2022-08-03T18:05:16.617Z,35.72
2022-08-03T18:08:01.579Z,35.64
2022-08-03T18:10:33.200Z,35.55
2022-08-03T18:13:04.296Z,35.48
2022-08-03T18:15:42.622Z,35.41
2022-08-03T18:18:11.168Z,35.36
2022-08-03T18:20:41.581Z,35.28
2022-08-03T18:23:24.563Z,35.21
2022-08-03T18:26:15.511Z,35.13
2022-08-03T18:28:42.258Z,35.13
2022-08-03T18:31:12.851Z,35.07
2022-08-03T18:36:46.691Z,34.94
2022-08-03T18:39:14.770Z,34.90
2022-08-03T18:41:46.496Z,34.85
2022-08-03T18:44:37.674Z,34.79
2022-08-03T18:50:41.390Z,34.65
2022-08-03T18:53:19.793Z,34.62
2022-08-03T18:56:45.539Z,34.58
2022-08-03T18:59:16.466Z,34.56
2022-08-03T19:02:20.566Z,34.48
2022-08-03T19:04:47.980Z,34.46
2022-08-03T19:07:22.267Z,34.42
2022-08-03T19:09:58.490Z,34.38
2022-08-03T19:12:39.563Z,34.37
2022-08-03T19:15:10.619Z,34.38
2022-08-03T19:17:53.669Z,34.32
2022-08-03T19:20:22.718Z,34.29
2022-08-03T19:22:52.233Z,34.24
2022-08-03T19:25:19.071Z,34.19
2022-08-03T19:27:46.115Z,34.14
2022-08-03T19:30:35.320Z,34.10
2022-08-03T19:33:11.185Z,34.09
2022-08-03T19:35:51.283Z,34.08
2022-08-03T19:38:28.546Z,34.07
2022-08-03T19:41:00.860Z,34.04
2022-08-03T19:43:33.120Z,34.05
2022-08-03T19:46:15.835Z,34.04
2022-08-03T19:48:43.600Z,33.99
2022-08-03T19:51:12.389Z,33.98
2022-08-03T19:53:44.928Z,33.96
2022-08-03T19:56:12.906Z,33.92
2022-08-03T19:58:40.268Z,33.89
2022-08-03T20:01:19.223Z,33.79
2022-08-03T20:03:48.116Z,33.76
2022-08-03T20:06:18.491Z,33.74
2022-08-03T20:08:45.123Z,33.69
2022-08-03T20:11:15.197Z,33.68
2022-08-03T20:13:44.844Z,33.59
2022-08-03T20:16:14.941Z,33.52
2022-08-03T20:18:42.632Z,33.49
2022-08-03T20:21:15.315Z,33.46
2022-08-03T20:24:02.064Z,33.43
2022-08-03T20:26:29.558Z,33.36
2022-08-03T20:29:00.524Z,33.31
2022-08-03T20:31:36.435Z,33.25
2022-08-03T20:34:03.414Z,33.21
2022-08-03T20:36:30.289Z,33.17
2022-08-03T20:38:58.155Z,33.13
2022-08-03T20:41:24.936Z,33.11
2022-08-03T20:43:51.532Z,33.09
2022-08-03T20:46:30.862Z,33.07
2022-08-03T20:49:05.588Z,33.05
2022-08-03T20:51:50.373Z,32.92
2022-08-03T20:54:30.664Z,32.94
2022-08-03T20:57:10.220Z,32.93
2022-08-03T20:59:50.254Z,32.89
2022-08-03T21:02:28.841Z,32.90
2022-08-03T21:04:56.323Z,32.84
2022-08-03T21:07:23.124Z,32.82
2022-08-03T21:09:55.956Z,32.75
2022-08-03T21:12:41.642Z,32.75
2022-08-03T21:13:04.733Z,35.01
2022-08-03T21:15:09.580Z,32.68
2022-08-03T21:17:57.564Z,32.62
2022-08-03T21:20:30.769Z,32.52
2022-08-03T21:22:57.717Z,32.51
2022-08-03T21:25:32.164Z,32.44
2022-08-03T21:27:58.781Z,32.40
2022-08-03T21:30:26.234Z,32.34
2022-08-03T21:32:53.593Z,32.28
2022-08-03T21:35:20.387Z,32.21
2022-08-03T21:37:47.105Z,32.18
2022-08-03T21:40:15.660Z,32.14
2022-08-03T21:42:43.884Z,32.10
2022-08-03T21:45:16.839Z,32.09
2022-08-03T21:47:44.123Z,32.06
2022-08-03T21:50:11.663Z,31.98
2022-08-03T21:52:46.018Z,31.91
2022-08-03T21:55:20.885Z,31.89
2022-08-03T21:57:51.906Z,31.87
2022-08-03T22:00:19.746Z,31.86
2022-08-03T22:02:54.475Z,31.81
2022-08-03T22:05:42.723Z,31.81
2022-08-03T22:08:09.019Z,31.81
2022-08-03T22:10:35.737Z,31.78
2022-08-03T22:13:02.321Z,31.75
2022-08-03T22:15:28.936Z,31.72
2022-08-03T22:17:57.347Z,31.69
2022-08-03T22:20:24.306Z,31.64
2022-08-03T22:22:55.776Z,31.60
2022-08-03T22:25:29.255Z,31.56
2022-08-03T22:27:56.512Z,31.53
2022-08-03T22:30:23.083Z,31.50
2022-08-03T22:32:50.376Z,31.44
2022-08-03T22:35:16.963Z,31.41
2022-08-03T22:37:43.565Z,31.40
2022-08-03T22:40:12.168Z,31.39
2022-08-03T22:42:39.859Z,31.37
2022-08-03T22:45:07.143Z,31.32
2022-08-03T22:47:38.066Z,31.26
2022-08-03T22:50:31.747Z,31.22
2022-08-03T22:52:55.761Z,31.23
2022-08-03T22:55:24.845Z,31.27
2022-08-03T22:57:55.660Z,31.21
2022-08-03T23:00:22.890Z,31.12
2022-08-03T23:02:49.570Z,31.12
2022-08-03T23:06:01.224Z,31.11
2022-08-03T23:08:05.003Z,31.03
2022-08-03T23:10:31.600Z,30.95
2022-08-03T23:12:58.171Z,30.96
2022-08-03T23:15:24.787Z,31.00
2022-08-03T23:17:57.694Z,30.89
2022-08-03T23:20:26.582Z,30.89
2022-08-03T23:22:54.139Z,30.90
2022-08-03T23:25:22.059Z,30.80
2022-08-03T23:27:48.673Z,30.76
2022-08-03T23:30:32.330Z,30.72
2022-08-03T23:32:58.895Z,30.64
2022-08-03T23:36:29.113Z,30.63
2022-08-03T23:38:31.847Z,30.57
2022-08-03T23:40:59.723Z,30.48
2022-08-03T23:43:52.076Z,30.49
2022-08-03T23:46:13.656Z,30.47
2022-08-03T23:48:44.883Z,30.42
2022-08-03T23:51:16.681Z,30.37
2022-08-03T23:54:06.399Z,30.33
2022-08-03T23:56:45.041Z,30.35
2022-08-03T23:59:27.897Z,30.25
